createdAt,value
2017-12-27T00:00:55.908Z,85.20
2017-12-27T00:01:54.227Z,85.20
2017-12-27T00:02:54.231Z,85.39
2017-12-27T00:03:54.239Z,84.91
2017-12-27T00:04:55.900Z,85.20
2017-12-27T00:05:54.191Z,84.72
2017-12-27T00:06:54.219Z,84.63
2017-12-27T00:07:54.177Z,84.82
2017-12-27T00:08:54.181Z,84.53
2017-12-27T00:09:54.163Z,84.82
2017-12-27T00:10:54.163Z,84.63
2017-12-27T00:11:55.912Z,84.44
2017-12-27T00:12:54.158Z,84.82
2017-12-27T00:13:54.156Z,84.53
2017-12-27T00:14:54.134Z,84.82
2017-12-27T00:15:55.931Z,84.82
2017-12-27T00:16:55.934Z,85.01
2017-12-27T00:17:54.118Z,84.63
2017-12-27T00:18:55.962Z,84.72
2017-12-27T00:19:54.080Z,84.44
2017-12-27T00:20:58.005Z,84.44
2017-12-27T00:21:54.091Z,84.53
2017-12-27T00:22:55.906Z,84.63
2017-12-27T00:23:55.929Z,84.72
2017-12-27T00:24:55.916Z,84.63
2017-12-27T00:25:54.037Z,84.63
2017-12-27T00:26:54.029Z,84.78
2017-12-27T00:27:54.051Z,84.63
2017-12-27T00:28:54.082Z,84.34
2017-12-27T00:29:55.931Z,83.97
2017-12-27T00:30:53.983Z,84.25
2017-12-27T00:31:54.007Z,83.59
2017-12-27T00:32:53.996Z,83.78
2017-12-27T00:33:53.967Z,83.87
2017-12-27T00:34:54.004Z,84.01
2017-12-27T00:35:53.961Z,84.06
2017-12-27T00:36:53.952Z,83.39
2017-12-27T00:37:53.939Z,83.68
2017-12-27T00:38:53.918Z,84.16
2017-12-27T00:39:53.919Z,83.39
2017-12-27T00:40:53.905Z,83.49
2017-12-27T00:41:53.925Z,83.49
2017-12-27T00:42:53.930Z,84.06
2017-12-27T00:43:55.432Z,83.30
2017-12-27T00:44:53.876Z,84.06
2017-12-27T00:45:53.910Z,84.01
2017-12-27T00:46:53.856Z,84.11
2017-12-27T00:47:55.413Z,83.78
2017-12-27T00:48:53.878Z,83.73
2017-12-27T00:49:55.442Z,83.59
2017-12-27T00:50:53.847Z,84.11
2017-12-27T00:51:53.855Z,84.11
2017-12-27T00:52:55.457Z,83.73
2017-12-27T00:53:53.825Z,83.49
2017-12-27T00:54:53.794Z,83.45
2017-12-27T00:55:53.822Z,84.01
2017-12-27T00:56:54.785Z,83.45
2017-12-27T00:58:01.428Z,83.11
2017-12-27T00:58:53.764Z,83.16
2017-12-27T00:59:53.756Z,83.20
2017-12-27T01:00:53.754Z,83.64
2017-12-27T01:01:05.748Z,83.54
2017-12-27T01:02:53.755Z,83.54
2017-12-27T01:03:53.710Z,83.36
2017-12-27T01:04:53.740Z,83.20
2017-12-27T01:05:53.734Z,83.16
2017-12-27T01:06:53.698Z,83.36
2017-12-27T01:07:53.699Z,83.36
2017-12-27T01:08:53.696Z,84.11
2017-12-27T01:09:53.698Z,83.64
2017-12-27T01:10:53.682Z,83.11
2017-12-27T01:11:53.696Z,83.20
2017-12-27T01:12:53.654Z,83.45
2017-12-27T01:13:53.664Z,83.16
2017-12-27T01:14:55.515Z,83.16
2017-12-27T01:15:57.448Z,83.20
2017-12-27T01:16:55.457Z,83.16
2017-12-27T01:17:55.469Z,82.88
2017-12-27T01:18:57.444Z,83.39
2017-12-27T01:19:55.444Z,82.97
2017-12-27T01:20:53.581Z,82.92
2017-12-27T01:21:53.609Z,83.16
2017-12-27T01:22:55.450Z,83.36
2017-12-27T01:23:53.570Z,82.78
2017-12-27T01:24:53.554Z,83.26
2017-12-27T01:25:53.569Z,83.16
2017-12-27T01:26:53.534Z,83.07
2017-12-27T01:27:54.555Z,83.36
2017-12-27T01:28:53.531Z,83.59
2017-12-27T01:29:53.538Z,83.07
2017-12-27T01:30:53.512Z,83.26
2017-12-27T01:31:55.453Z,82.97
2017-12-27T01:32:53.548Z,83.64
2017-12-27T01:33:55.447Z,84.01
2017-12-27T01:34:53.488Z,84.01
2017-12-27T01:35:53.493Z,83.54
2017-12-27T01:36:53.471Z,83.64
2017-12-27T01:37:53.465Z,83.36
2017-12-27T01:38:54.956Z,83.16
2017-12-27T01:39:56.975Z,82.97
2017-12-27T01:40:53.417Z,83.45
2017-12-27T01:41:53.432Z,83.73
2017-12-27T01:42:53.448Z,83.54
2017-12-27T01:43:53.411Z,83.26
2017-12-27T01:44:53.405Z,84.21
2017-12-27T01:45:53.398Z,83.92
2017-12-27T01:46:53.403Z,83.73
2017-12-27T01:47:53.359Z,83.73
2017-12-27T01:48:53.368Z,84.01
2017-12-27T01:49:53.383Z,84.01
2017-12-27T01:50:54.966Z,83.92
2017-12-27T01:51:53.346Z,84.30
2017-12-27T01:52:53.341Z,84.21
2017-12-27T01:53:53.316Z,84.01
2017-12-27T01:54:53.302Z,84.21
2017-12-27T01:55:53.308Z,84.30
2017-12-27T01:56:53.290Z,83.92
2017-12-27T01:57:53.300Z,84.68
2017-12-27T01:58:53.279Z,84.59
2017-12-27T01:59:53.284Z,84.40
2017-12-27T02:00:54.981Z,84.49
2017-12-27T02:01:54.968Z,84.78
2017-12-27T02:02:53.255Z,84.49
2017-12-27T02:03:53.223Z,84.78
2017-12-27T02:04:53.249Z,84.78
2017-12-27T02:05:54.947Z,84.40
2017-12-27T02:06:53.209Z,84.59
2017-12-27T02:07:53.198Z,84.49
2017-12-27T02:08:54.964Z,84.40
2017-12-27T02:09:53.181Z,84.59
2017-12-27T02:10:53.183Z,84.01
2017-12-27T02:11:53.183Z,84.30
2017-12-27T02:12:53.181Z,84.01
2017-12-27T02:13:53.184Z,84.01
2017-12-27T02:14:53.163Z,83.64
2017-12-27T02:15:53.150Z,83.54
2017-12-27T02:16:53.142Z,83.73
2017-12-27T02:17:53.141Z,83.54
2017-12-27T02:18:54.967Z,82.97
2017-12-27T02:19:53.104Z,82.78
2017-12-27T02:20:53.100Z,82.59
2017-12-27T02:21:53.089Z,81.93
2017-12-27T02:22:53.078Z,82.21
2017-12-27T02:23:53.093Z,81.78
2017-12-27T02:24:53.070Z,81.68
2017-12-27T02:25:53.072Z,81.36
2017-12-27T02:26:53.042Z,81.55
2017-12-27T02:27:53.053Z,80.98
2017-12-27T02:28:53.043Z,80.60
2017-12-27T02:29:53.026Z,81.26
2017-12-27T02:30:53.021Z,80.74
2017-12-27T02:31:54.990Z,81.12
2017-12-27T02:32:53.013Z,81.36
2017-12-27T02:33:54.961Z,81.17
2017-12-27T02:34:52.990Z,81.21
2017-12-27T02:35:52.988Z,81.21
2017-12-27T02:36:52.988Z,81.26
2017-12-27T02:37:52.953Z,81.36
2017-12-27T02:38:52.984Z,81.17
2017-12-27T02:39:52.957Z,80.41
2017-12-27T02:40:52.960Z,80.32
2017-12-27T02:41:52.935Z,80.13
2017-12-27T02:42:52.907Z,80.22
2017-12-27T02:43:52.908Z,80.41
2017-12-27T02:44:52.915Z,80.35
2017-12-27T02:45:52.903Z,80.22
2017-12-27T02:46:54.502Z,80.32
2017-12-27T02:47:52.872Z,80.13
2017-12-27T02:48:52.908Z,80.16
2017-12-27T02:49:54.455Z,80.13
2017-12-27T02:50:52.853Z,80.03
2017-12-27T02:51:52.845Z,80.32
2017-12-27T02:52:54.454Z,80.55
2017-12-27T02:53:52.836Z,80.07
2017-12-27T02:54:54.493Z,79.94
2017-12-27T02:55:54.474Z,79.94
2017-12-27T02:56:52.819Z,79.55
2017-12-27T02:57:52.817Z,79.27
2017-12-27T02:58:52.816Z,78.64
2017-12-27T02:59:54.486Z,79.46
2017-12-27T03:00:52.787Z,78.64
2017-12-27T03:01:52.770Z,78.64
2017-12-27T03:02:52.749Z,78.64
2017-12-27T03:03:52.773Z,78.74
2017-12-27T03:04:52.732Z,78.27
2017-12-27T03:05:52.744Z,78.36
2017-12-27T03:06:52.721Z,78.36
2017-12-27T03:07:52.703Z,78.45
2017-12-27T03:08:52.721Z,78.36
2017-12-27T03:09:52.698Z,78.64
2017-12-27T03:10:52.739Z,78.55
2017-12-27T03:11:52.705Z,78.45
2017-12-27T03:12:52.689Z,78.55
2017-12-27T03:13:52.668Z,78.55
2017-12-27T03:14:52.690Z,78.64
2017-12-27T03:15:54.493Z,78.36
2017-12-27T03:16:52.632Z,77.98
2017-12-27T03:17:52.629Z,77.98
2017-12-27T03:18:52.616Z,78.55
2017-12-27T03:19:52.644Z,78.27
2017-12-27T03:20:53.602Z,78.08
2017-12-27T03:21:52.606Z,78.08
2017-12-27T03:22:54.480Z,78.23
2017-12-27T03:23:52.582Z,78.45
2017-12-27T03:24:52.573Z,77.98
2017-12-27T03:25:52.579Z,78.17
2017-12-27T03:26:52.553Z,77.84
2017-12-27T03:27:52.549Z,78.27
2017-12-27T03:28:54.498Z,78.08
2017-12-27T03:29:52.539Z,78.32
2017-12-27T03:30:52.524Z,78.64
2017-12-27T03:31:54.502Z,78.64
2017-12-27T03:32:52.515Z,78.55
2017-12-27T03:33:52.500Z,78.45
2017-12-27T03:34:52.512Z,78.32
2017-12-27T03:35:52.468Z,78.36
2017-12-27T03:36:54.009Z,78.51
2017-12-27T03:37:52.496Z,78.13
2017-12-27T03:38:52.465Z,78.45
2017-12-27T03:39:52.472Z,78.55
2017-12-27T03:40:52.445Z,78.32
2017-12-27T03:41:52.445Z,78.51
2017-12-27T03:42:53.977Z,78.70
2017-12-27T03:43:52.421Z,78.61
2017-12-27T03:44:52.417Z,78.23
2017-12-27T03:45:52.406Z,78.70
2017-12-27T03:46:53.979Z,78.55
2017-12-27T03:47:52.374Z,78.61
2017-12-27T03:48:52.371Z,78.32
2017-12-27T03:49:52.361Z,78.23
2017-12-27T03:50:52.364Z,78.64
2017-12-27T03:51:52.360Z,78.74
2017-12-27T03:52:52.334Z,78.83
2017-12-27T03:53:52.353Z,78.70
2017-12-27T03:54:52.363Z,78.70
2017-12-27T03:55:52.332Z,78.23
2017-12-27T03:56:52.302Z,78.45
2017-12-27T03:57:55.988Z,78.17
2017-12-27T03:58:52.306Z,78.45
2017-12-27T03:59:52.311Z,78.64
2017-12-27T04:00:52.315Z,78.45
2017-12-27T04:01:53.978Z,77.98
2017-12-27T04:02:52.304Z,78.45
2017-12-27T04:03:52.261Z,78.36
2017-12-27T04:04:52.251Z,78.42
2017-12-27T04:05:52.232Z,78.27
2017-12-27T04:06:52.247Z,78.93
2017-12-27T04:07:52.249Z,78.83
2017-12-27T04:08:52.249Z,78.17
2017-12-27T04:09:56.006Z,78.45
2017-12-27T04:10:52.211Z,77.94
2017-12-27T04:11:52.184Z,78.42
2017-12-27T04:12:52.179Z,78.23
2017-12-27T04:13:52.170Z,78.08
2017-12-27T04:14:52.186Z,78.64
2017-12-27T04:15:53.989Z,78.64
2017-12-27T04:16:52.140Z,78.83
2017-12-27T04:17:52.139Z,77.84
2017-12-27T04:18:52.147Z,78.36
2017-12-27T04:19:53.998Z,78.32
2017-12-27T04:20:52.134Z,78.70
2017-12-27T04:21:52.116Z,78.51
2017-12-27T04:22:52.126Z,78.83
2017-12-27T04:23:53.996Z,78.42
2017-12-27T04:24:52.107Z,78.32
2017-12-27T04:25:52.075Z,78.45
2017-12-27T04:26:52.055Z,78.45
2017-12-27T04:27:52.067Z,78.13
2017-12-27T04:28:52.056Z,78.64
2017-12-27T04:29:52.071Z,77.89
2017-12-27T04:30:52.037Z,78.70
2017-12-27T04:31:52.068Z,77.79
2017-12-27T04:32:52.031Z,77.98
2017-12-27T04:33:52.040Z,77.79
2017-12-27T04:34:52.034Z,77.98
2017-12-27T04:35:52.004Z,78.08
2017-12-27T04:36:52.014Z,77.79
2017-12-27T04:37:52.033Z,77.79
2017-12-27T04:38:53.564Z,78.08
2017-12-27T04:39:53.504Z,77.89
2017-12-27T04:40:51.967Z,77.70
2017-12-27T04:41:51.943Z,77.89
2017-12-27T04:42:51.942Z,77.89
2017-12-27T04:43:51.958Z,77.22
2017-12-27T04:44:51.956Z,77.79
2017-12-27T04:45:51.930Z,77.89
2017-12-27T04:46:51.917Z,77.51
2017-12-27T04:47:53.544Z,77.41
2017-12-27T04:48:51.890Z,76.93
2017-12-27T04:49:51.892Z,76.84
2017-12-27T04:50:51.891Z,77.12
2017-12-27T04:51:55.524Z,76.84
2017-12-27T04:52:51.862Z,76.93
2017-12-27T04:53:51.854Z,77.03
2017-12-27T04:54:51.863Z,77.12
2017-12-27T04:55:59.494Z,76.46
2017-12-27T04:56:51.835Z,76.65
2017-12-27T04:57:53.560Z,76.93
2017-12-27T04:58:51.801Z,77.22
2017-12-27T04:59:51.820Z,76.84
2017-12-27T05:00:51.804Z,76.65
2017-12-27T05:01:51.796Z,76.84
2017-12-27T05:02:55.520Z,76.84
2017-12-27T05:03:51.768Z,76.75
2017-12-27T05:04:53.538Z,76.65
2017-12-27T05:05:53.511Z,77.22
2017-12-27T05:06:51.742Z,77.41
2017-12-27T05:07:51.735Z,77.22
2017-12-27T05:08:51.722Z,77.51
2017-12-27T05:09:51.719Z,77.31
2017-12-27T05:10:53.524Z,77.22
2017-12-27T05:11:53.526Z,77.31
2017-12-27T05:12:51.693Z,77.79
2017-12-27T05:13:51.683Z,77.89
2017-12-27T05:14:51.684Z,78.27
2017-12-27T05:15:51.676Z,78.08
2017-12-27T05:16:51.675Z,78.74
2017-12-27T05:17:51.648Z,78.55
2017-12-27T05:18:51.652Z,78.64
2017-12-27T05:19:51.643Z,78.27
2017-12-27T05:20:51.663Z,78.55
2017-12-27T05:21:51.616Z,78.64
2017-12-27T05:22:53.514Z,79.41
2017-12-27T05:23:51.615Z,79.50
2017-12-27T05:24:51.598Z,79.31
2017-12-27T05:25:53.509Z,79.69
2017-12-27T05:26:51.574Z,79.50
2017-12-27T05:27:51.635Z,80.16
2017-12-27T05:28:51.575Z,80.07
2017-12-27T05:29:51.576Z,79.97
2017-12-27T05:30:53.531Z,80.35
2017-12-27T05:31:51.541Z,80.26
2017-12-27T05:32:51.549Z,80.45
2017-12-27T05:33:51.549Z,80.83
2017-12-27T05:34:51.532Z,81.21
2017-12-27T05:35:51.528Z,81.78
2017-12-27T05:36:51.517Z,81.78
2017-12-27T05:37:51.506Z,81.87
2017-12-27T05:38:51.525Z,82.35
2017-12-27T05:39:53.042Z,82.16
2017-12-27T05:40:51.478Z,82.64
2017-12-27T05:41:51.458Z,82.82
2017-12-27T05:42:51.485Z,82.64
2017-12-27T05:43:51.446Z,82.73
2017-12-27T05:44:51.457Z,83.20
2017-12-27T05:45:51.441Z,83.01
2017-12-27T05:46:51.418Z,83.49
2017-12-27T05:47:51.425Z,83.68
2017-12-27T05:48:51.418Z,84.16
2017-12-27T05:49:51.406Z,83.68
2017-12-27T05:50:51.399Z,84.06
2017-12-27T05:51:51.479Z,84.72
2017-12-27T05:52:51.408Z,84.72
2017-12-27T05:53:51.375Z,84.44
2017-12-27T05:54:52.359Z,85.01
2017-12-27T05:55:51.365Z,85.44
2017-12-27T05:56:53.072Z,85.72
2017-12-27T05:57:51.370Z,85.58
2017-12-27T05:58:53.029Z,85.72
2017-12-27T05:59:53.016Z,85.44
2017-12-27T06:00:53.098Z,85.63
2017-12-27T06:01:51.314Z,85.82
2017-12-27T06:02:51.293Z,86.30
2017-12-27T06:03:51.300Z,86.63
2017-12-27T06:04:53.063Z,87.01
2017-12-27T06:05:51.318Z,86.87
2017-12-27T06:06:51.252Z,86.77
2017-12-27T06:07:51.264Z,86.49
2017-12-27T06:08:51.292Z,86.58
2017-12-27T06:09:53.052Z,87.05
2017-12-27T06:10:53.065Z,86.87
2017-12-27T06:11:51.270Z,86.77
2017-12-27T06:12:53.052Z,87.24
2017-12-27T06:13:53.070Z,87.43
2017-12-27T06:14:53.056Z,87.24
2017-12-27T06:15:51.214Z,87.15
2017-12-27T06:16:51.213Z,87.24
2017-12-27T06:17:51.197Z,87.34
2017-12-27T06:18:51.215Z,87.62
2017-12-27T06:19:51.226Z,87.82
2017-12-27T06:20:51.156Z,87.91
2017-12-27T06:21:51.148Z,87.72
2017-12-27T06:22:51.133Z,87.91
2017-12-27T06:23:51.139Z,88.29
2017-12-27T06:24:51.136Z,87.82
2017-12-27T06:25:55.060Z,88.39
2017-12-27T06:26:51.112Z,88.10
2017-12-27T06:27:51.091Z,88.01
2017-12-27T06:28:51.101Z,88.20
2017-12-27T06:29:55.064Z,88.29
2017-12-27T06:30:51.099Z,87.82
2017-12-27T06:31:51.073Z,88.29
2017-12-27T06:32:51.068Z,88.76
2017-12-27T06:33:52.558Z,88.67
2017-12-27T06:34:51.063Z,88.95
2017-12-27T06:35:51.046Z,88.48
2017-12-27T06:36:51.042Z,88.86
2017-12-27T06:37:51.027Z,88.86
2017-12-27T06:38:51.002Z,88.86
2017-12-27T06:39:51.015Z,89.24
2017-12-27T06:40:50.994Z,88.86
2017-12-27T06:41:50.994Z,88.57
2017-12-27T06:42:50.993Z,89.43
2017-12-27T06:43:51.022Z,89.33
2017-12-27T06:44:50.980Z,88.76
2017-12-27T06:45:52.540Z,88.95
2017-12-27T06:46:50.967Z,89.53
2017-12-27T06:47:52.552Z,89.43
2017-12-27T06:48:52.604Z,89.14
2017-12-27T06:49:50.951Z,89.43
2017-12-27T06:50:50.936Z,90.09
2017-12-27T06:51:50.920Z,90.09
2017-12-27T06:52:52.560Z,90.09
2017-12-27T06:53:02.912Z,89.90
2017-12-27T06:54:50.914Z,89.81
2017-12-27T06:55:50.916Z,90.09
2017-12-27T06:56:50.872Z,89.72
2017-12-27T06:57:50.883Z,89.62
2017-12-27T06:58:54.559Z,90.09
2017-12-27T06:59:50.861Z,90.00
2017-12-27T07:00:52.616Z,89.90
2017-12-27T07:01:52.538Z,89.90
2017-12-27T07:02:50.855Z,90.09
2017-12-27T07:03:50.825Z,90.19
2017-12-27T07:04:54.587Z,89.90
2017-12-27T07:05:50.802Z,89.72
2017-12-27T07:06:50.805Z,89.90
2017-12-27T07:07:50.762Z,90.00
2017-12-27T07:08:50.795Z,89.81
2017-12-27T07:09:50.759Z,89.72
2017-12-27T07:10:50.748Z,90.00
2017-12-27T07:11:52.609Z,89.90
2017-12-27T07:12:52.580Z,90.09
2017-12-27T07:13:50.744Z,90.28
2017-12-27T07:14:50.759Z,89.90
2017-12-27T07:15:50.706Z,90.09
2017-12-27T07:16:50.694Z,90.00
2017-12-27T07:17:50.701Z,90.09
2017-12-27T07:18:50.684Z,90.47
2017-12-27T07:19:50.680Z,90.47
2017-12-27T07:20:52.580Z,90.38
2017-12-27T07:21:54.573Z,90.66
2017-12-27T07:22:50.651Z,90.76
2017-12-27T07:23:50.666Z,91.04
2017-12-27T07:24:50.638Z,91.14
2017-12-27T07:25:52.572Z,91.14
2017-12-27T07:26:50.608Z,91.04
2017-12-27T07:27:50.625Z,90.76
2017-12-27T07:28:52.584Z,91.14
2017-12-27T07:29:50.590Z,91.14
2017-12-27T07:30:50.573Z,91.24
2017-12-27T07:31:52.086Z,90.85
2017-12-27T07:32:50.547Z,90.66
2017-12-27T07:33:50.558Z,90.66
2017-12-27T07:34:50.563Z,90.95
2017-12-27T07:35:50.564Z,90.85
2017-12-27T07:36:50.529Z,90.85
2017-12-27T07:37:50.517Z,91.42
2017-12-27T07:38:50.519Z,91.14
2017-12-27T07:39:50.518Z,91.14
2017-12-27T07:40:50.529Z,91.04
2017-12-27T07:41:50.488Z,91.04
2017-12-27T07:42:50.466Z,91.14
2017-12-27T07:43:52.109Z,91.24
2017-12-27T07:44:50.464Z,91.14
2017-12-27T07:45:50.459Z,91.14
2017-12-27T07:46:50.476Z,91.14
2017-12-27T07:47:52.131Z,91.14
2017-12-27T07:48:50.425Z,91.14
2017-12-27T07:49:50.427Z,91.61
2017-12-27T07:50:50.417Z,91.61
2017-12-27T07:51:50.419Z,91.42
2017-12-27T07:52:50.396Z,91.52
2017-12-27T07:53:52.071Z,91.61
2017-12-27T07:54:52.107Z,91.42
2017-12-27T07:55:50.384Z,91.33
2017-12-27T07:56:50.368Z,91.71
2017-12-27T07:57:50.335Z,92.28
2017-12-27T07:58:50.352Z,92.18
2017-12-27T07:59:50.323Z,92.18
2017-12-27T08:00:52.086Z,92.47
2017-12-27T08:01:50.310Z,92.18
2017-12-27T08:02:52.069Z,92.94
2017-12-27T08:03:50.284Z,92.66
2017-12-27T08:04:50.293Z,92.94
2017-12-27T08:05:50.293Z,92.66
2017-12-27T08:06:54.085Z,92.56
2017-12-27T08:07:50.251Z,92.28
2017-12-27T08:08:50.270Z,92.94
2017-12-27T08:09:50.255Z,92.75
2017-12-27T08:10:52.060Z,92.47
2017-12-27T08:11:50.237Z,92.56
2017-12-27T08:12:50.230Z,92.66
2017-12-27T08:13:50.226Z,92.75
2017-12-27T08:14:52.095Z,92.66
2017-12-27T08:15:50.218Z,92.75
2017-12-27T08:16:50.206Z,92.37
2017-12-27T08:17:50.174Z,92.94
2017-12-27T08:18:50.160Z,92.75
2017-12-27T08:19:50.183Z,92.28
2017-12-27T08:20:52.077Z,92.85
2017-12-27T08:21:50.145Z,92.37
2017-12-27T08:22:52.073Z,92.75
2017-12-27T08:23:50.129Z,92.75
2017-12-27T08:24:50.147Z,92.66
2017-12-27T08:25:50.125Z,92.75
2017-12-27T08:26:50.088Z,92.37
2017-12-27T08:27:50.106Z,92.47
2017-12-27T08:28:51.602Z,92.18
2017-12-27T08:29:50.079Z,92.28
2017-12-27T08:30:50.064Z,92.66
2017-12-27T08:31:51.577Z,92.56
2017-12-27T08:32:50.053Z,92.66
2017-12-27T08:33:50.056Z,92.28
2017-12-27T08:34:51.603Z,92.18
2017-12-27T08:35:51.601Z,92.28
2017-12-27T08:36:50.024Z,92.37
2017-12-27T08:37:50.034Z,92.09
2017-12-27T08:38:50.004Z,92.28
2017-12-27T08:39:50.012Z,91.89
2017-12-27T08:40:50.004Z,92.09
2017-12-27T08:41:49.976Z,91.42
2017-12-27T08:42:49.968Z,91.42
2017-12-27T08:43:49.971Z,91.89
2017-12-27T08:44:49.943Z,92.28
2017-12-27T08:45:49.959Z,92.09
2017-12-27T08:46:50.927Z,91.89
2017-12-27T08:47:49.948Z,91.99
2017-12-27T08:48:51.589Z,92.09
2017-12-27T08:49:51.585Z,91.89
2017-12-27T08:50:53.595Z,91.61
2017-12-27T08:51:51.630Z,92.09
2017-12-27T08:52:49.882Z,92.28
2017-12-27T08:53:49.884Z,91.52
2017-12-27T08:54:51.590Z,91.42
2017-12-27T08:55:49.862Z,92.13
2017-12-27T08:56:49.882Z,91.42
2017-12-27T08:57:49.856Z,92.09
2017-12-27T08:58:49.861Z,92.09
2017-12-27T08:59:49.860Z,91.71
2017-12-27T09:00:49.861Z,91.52
2017-12-27T09:01:49.832Z,91.80
2017-12-27T09:02:49.803Z,91.80
2017-12-27T09:03:51.584Z,91.61
2017-12-27T09:04:51.585Z,91.61
2017-12-27T09:05:49.786Z,91.66
2017-12-27T09:06:49.811Z,91.28
2017-12-27T09:07:53.613Z,91.38
2017-12-27T09:08:53.597Z,91.85
2017-12-27T09:09:49.755Z,91.19
2017-12-27T09:10:49.746Z,91.28
2017-12-27T09:11:51.608Z,91.09
2017-12-27T09:12:49.742Z,90.71
2017-12-27T09:13:49.732Z,90.14
2017-12-27T09:14:49.725Z,90.52
2017-12-27T09:15:51.605Z,90.99
2017-12-27T09:16:49.690Z,90.90
2017-12-27T09:17:49.683Z,91.19
2017-12-27T09:18:49.684Z,91.19
2017-12-27T09:19:49.682Z,90.99
2017-12-27T09:20:49.681Z,91.19
2017-12-27T09:21:49.669Z,91.28
2017-12-27T09:22:49.652Z,90.33
2017-12-27T09:23:49.648Z,90.71
2017-12-27T09:24:49.655Z,90.61
2017-12-27T09:25:49.644Z,90.33
2017-12-27T09:26:49.630Z,90.80
2017-12-27T09:27:49.609Z,90.52
2017-12-27T09:28:49.590Z,90.33
2017-12-27T09:29:49.603Z,90.33
2017-12-27T09:30:49.585Z,90.61
2017-12-27T09:31:49.595Z,91.66
2017-12-27T09:32:49.562Z,92.32
2017-12-27T09:33:49.565Z,91.75
2017-12-27T09:34:49.549Z,92.42
2017-12-27T09:35:49.555Z,92.51
2017-12-27T09:36:49.558Z,92.13
2017-12-27T09:37:49.532Z,92.51
2017-12-27T09:38:49.521Z,92.23
2017-12-27T09:39:49.520Z,91.33
2017-12-27T09:40:49.523Z,91.89
2017-12-27T09:41:49.499Z,92.75
2017-12-27T09:42:49.480Z,92.18
2017-12-27T09:43:49.488Z,89.90
2017-12-27T09:44:49.490Z,89.42
2017-12-27T09:45:49.479Z,89.90
2017-12-27T09:46:49.459Z,91.23
2017-12-27T09:47:49.478Z,90.28
2017-12-27T09:48:49.462Z,90.75
2017-12-27T09:49:49.445Z,90.56
2017-12-27T09:50:49.458Z,90.09
2017-12-27T09:51:49.448Z,90.37
2017-12-27T09:52:49.429Z,90.66
2017-12-27T09:53:49.419Z,90.19
2017-12-27T09:54:49.396Z,90.19
2017-12-27T09:55:49.389Z,89.33
2017-12-27T09:56:49.399Z,89.90
2017-12-27T09:58:49.396Z,90.09
2017-12-27T09:59:51.106Z,89.71
2017-12-27T10:00:49.371Z,90.19
2017-12-27T10:01:49.346Z,90.09
2017-12-27T10:02:49.371Z,90.19
2017-12-27T10:03:49.332Z,90.47
2017-12-27T10:04:49.334Z,91.04
2017-12-27T10:05:49.339Z,91.80
2017-12-27T10:06:49.332Z,92.66
2017-12-27T10:07:49.367Z,93.51
2017-12-27T10:08:49.304Z,91.61
2017-12-27T10:09:49.282Z,91.75
2017-12-27T10:10:49.276Z,90.37
2017-12-27T10:11:49.269Z,90.75
2017-12-27T10:12:49.262Z,90.99
2017-12-27T10:13:49.260Z,91.85
2017-12-27T10:14:49.248Z,93.27
2017-12-27T10:15:49.241Z,91.66
2017-12-27T10:16:49.227Z,90.04
2017-12-27T10:17:49.222Z,90.33
2017-12-27T10:18:49.250Z,91.28
2017-12-27T10:19:49.235Z,90.61
2017-12-27T10:20:49.227Z,91.56
2017-12-27T10:21:49.201Z,90.70
2017-12-27T10:22:49.189Z,91.28
2017-12-27T10:23:49.196Z,89.94
2017-12-27T10:24:51.125Z,89.47
2017-12-27T10:25:49.170Z,89.85
2017-12-27T10:26:49.185Z,89.94
2017-12-27T10:27:51.121Z,90.04
2017-12-27T10:31:19.500Z,90.61
2017-12-27T10:32:13.468Z,90.23
2017-12-27T10:34:57.350Z,90.89
2017-12-27T10:35:57.256Z,91.37
2017-12-27T10:36:57.233Z,91.28
2017-12-27T10:37:57.269Z,90.09
2017-12-27T10:38:57.856Z,89.85
2017-12-27T10:39:57.654Z,91.18
2017-12-27T10:40:57.358Z,90.23
2017-12-27T10:41:57.195Z,89.94
2017-12-27T10:42:57.213Z,90.42
2017-12-27T10:43:57.183Z,90.04
2017-12-27T10:44:57.173Z,90.23
2017-12-27T10:45:57.158Z,90.33
2017-12-27T10:46:57.879Z,89.28
2017-12-27T10:47:57.154Z,88.80
2017-12-27T10:48:57.146Z,89.66
2017-12-27T10:49:57.148Z,89.18
2017-12-27T10:50:57.138Z,88.90
2017-12-27T10:51:57.144Z,88.57
2017-12-27T10:52:57.266Z,89.09
2017-12-27T10:53:57.149Z,89.18
2017-12-27T10:54:57.172Z,89.75
2017-12-27T10:55:57.106Z,89.28
2017-12-27T10:56:57.179Z,88.80
2017-12-27T10:57:57.097Z,88.80
2017-12-27T10:58:57.106Z,89.00
2017-12-27T10:59:57.119Z,88.90
2017-12-27T11:00:57.111Z,89.75
2017-12-27T11:01:57.158Z,89.66
2017-12-27T11:02:57.068Z,88.61
2017-12-27T11:03:57.033Z,88.80
2017-12-27T11:04:57.040Z,89.18
2017-12-27T11:05:57.022Z,89.94
2017-12-27T11:06:57.012Z,89.00
2017-12-27T11:07:57.043Z,89.09
2017-12-27T11:08:57.000Z,89.18
2017-12-27T11:09:56.995Z,89.09
2017-12-27T11:10:59.819Z,88.42
2017-12-27T11:11:56.976Z,89.37
2017-12-27T11:12:56.990Z,89.47
2017-12-27T11:13:56.995Z,89.37
2017-12-27T11:14:56.993Z,89.47
2017-12-27T11:15:56.990Z,89.75
2017-12-27T11:16:56.966Z,89.56
2017-12-27T11:17:56.965Z,89.09
2017-12-27T11:18:56.935Z,88.80
2017-12-27T11:19:56.926Z,88.42
2017-12-27T11:20:56.942Z,88.90
2017-12-27T11:21:56.928Z,88.80
2017-12-27T11:22:56.933Z,88.42
2017-12-27T11:23:56.912Z,88.13
2017-12-27T11:24:57.831Z,87.95
2017-12-27T11:25:56.891Z,88.13
2017-12-27T11:26:56.896Z,87.76
2017-12-27T11:27:56.891Z,87.38
2017-12-27T11:28:56.872Z,87.47
2017-12-27T11:29:56.862Z,87.09
2017-12-27T11:30:56.854Z,87.47
2017-12-27T11:31:56.864Z,87.76
2017-12-27T11:32:56.862Z,87.28
2017-12-27T11:33:59.856Z,87.57
2017-12-27T11:34:56.833Z,87.76
2017-12-27T11:35:56.818Z,87.76
2017-12-27T11:36:56.810Z,87.85
2017-12-27T11:37:56.805Z,87.38
2017-12-27T11:38:57.325Z,87.19
2017-12-27T11:39:56.803Z,87.28
2017-12-27T11:40:56.775Z,87.28
2017-12-27T11:41:56.798Z,87.38
2017-12-27T11:42:56.810Z,86.85
2017-12-27T11:43:56.762Z,86.85
2017-12-27T11:44:56.812Z,86.85
2017-12-27T11:45:56.763Z,86.94
2017-12-27T11:46:56.755Z,86.52
2017-12-27T11:47:56.741Z,87.13
2017-12-27T11:48:56.747Z,86.94
2017-12-27T11:49:56.746Z,86.66
2017-12-27T11:50:56.761Z,86.66
2017-12-27T11:51:56.747Z,86.85
2017-12-27T11:52:56.723Z,86.66
2017-12-27T11:53:56.704Z,86.47
2017-12-27T11:54:56.752Z,86.85
2017-12-27T11:55:56.722Z,86.47
2017-12-27T11:56:56.701Z,86.18
2017-12-27T11:57:56.695Z,86.47
2017-12-27T11:58:56.680Z,86.38
2017-12-27T11:59:56.702Z,86.38
2017-12-27T12:00:57.346Z,85.99
2017-12-27T12:01:56.673Z,86.38
2017-12-27T12:02:56.668Z,86.18
2017-12-27T12:03:56.674Z,86.38
2017-12-27T12:04:56.647Z,87.04
2017-12-27T12:05:56.616Z,86.94
2017-12-27T12:06:56.724Z,86.94
2017-12-27T12:07:56.645Z,86.66
2017-12-27T12:08:56.613Z,86.76
2017-12-27T12:09:56.684Z,86.66
2017-12-27T12:10:56.604Z,86.94
2017-12-27T12:11:56.662Z,87.61
2017-12-27T12:12:56.608Z,87.61
2017-12-27T12:13:56.685Z,87.52
2017-12-27T12:14:56.746Z,87.32
2017-12-27T12:15:57.392Z,87.52
2017-12-27T12:16:56.588Z,87.52
2017-12-27T12:17:56.591Z,87.32
2017-12-27T12:18:56.569Z,87.61
2017-12-27T12:19:57.340Z,87.52
2017-12-27T12:20:56.562Z,87.32
2017-12-27T12:21:56.549Z,87.23
2017-12-27T12:22:56.543Z,86.85
2017-12-27T12:23:56.505Z,86.76
2017-12-27T12:24:56.494Z,86.76
2017-12-27T12:25:56.515Z,86.57
2017-12-27T12:26:56.520Z,86.85
2017-12-27T12:27:56.489Z,86.38
2017-12-27T12:28:56.525Z,86.57
2017-12-27T12:29:56.509Z,86.57
2017-12-27T12:30:56.461Z,86.28
2017-12-27T12:31:56.451Z,86.57
2017-12-27T12:32:56.438Z,86.57
2017-12-27T12:33:56.446Z,86.85
2017-12-27T12:34:56.537Z,86.28
2017-12-27T12:35:56.431Z,86.09
2017-12-27T12:36:56.443Z,86.09
2017-12-27T12:37:56.416Z,85.99
2017-12-27T12:38:56.425Z,86.38
2017-12-27T12:39:56.415Z,86.09
2017-12-27T12:40:56.402Z,86.66
2017-12-27T12:41:56.388Z,86.57
2017-12-27T12:42:56.913Z,86.47
2017-12-27T12:43:56.398Z,86.57
2017-12-27T12:44:59.378Z,86.76
2017-12-27T12:45:56.384Z,87.04
2017-12-27T12:46:56.384Z,86.47
2017-12-27T12:47:56.353Z,86.66
2017-12-27T12:48:56.831Z,86.76
2017-12-27T12:49:56.336Z,86.85
2017-12-27T12:50:56.336Z,87.13
2017-12-27T12:51:56.385Z,87.23
2017-12-27T12:52:56.323Z,87.42
2017-12-27T12:53:56.907Z,86.76
2017-12-27T12:54:56.331Z,87.13
2017-12-27T12:55:56.856Z,87.61
2017-12-27T12:56:56.310Z,87.42
2017-12-27T12:57:56.295Z,87.90